Time;durP1;ratioP1;P1;durP2;ratioP2;P2;SDS_P1;SDS_P2;PMS_P1;PMS_P2;Temp;Humidity;BMP_temperature;BMP_pressure;BME280_temperature;BME280_humidity;BME280_pressure;Samples;Min_cycle;Max_cycle;Signal;HPM_P1;HPM_P2
2023/08/04 00:02:10;;;;;;;;;4.00;4.00;;;;;19.62;61.63;100776.91;5037189;28;45324;-71
2023/08/04 00:04:36;;;;;;;;;5.50;5.50;;;;;19.36;61.58;100736.28;5037170;28;45358;-71
2023/08/04 00:07:01;;;;;;;;;4.75;4.75;;;;;19.68;61.66;100794.97;5019094;28;45475;-71
2023/08/04 00:09:26;;;;;;;;;8.00;3.75;;;;;19.64;62.04;100779.38;5036754;28;50912;-71
2023/08/04 00:11:51;;;;;;;;;5.25;4.50;;;;;19.69;62.16;100791.22;5036642;28;54462;-72
2023/08/04 00:14:17;;;;;;;;;5.00;5.00;;;;;19.67;61.99;100792.47;5036610;28;45554;-71
2023/08/04 00:16:42;;;;;;;;;13.00;10.00;;;;;19.24;62.27;100727.97;5037190;28;45266;-71
2023/08/04 00:19:07;;;;;;;;;6.00;6.00;;;;;19.66;62.33;100797.03;5037250;28;45407;-71
2023/08/04 00:21:33;;;;;;;;;5.00;4.00;;;;;19.61;62.34;100799.47;5037048;28;45423;-72
2023/08/04 00:23:58;;;;;;;;;6.25;4.75;;;;;19.54;62.35;100782.44;5037094;28;45187;-71
2023/08/04 00:26:24;;;;;;;;;4.25;4.25;;;;;19.62;62.19;100806.56;5037257;28;45495;-71
2023/08/04 00:28:49;;;;;;;;;5.00;5.00;;;;;19.61;62.35;100796.78;5037042;28;45431;-72
2023/08/04 00:31:15;;;;;;;;;4.50;4.50;;;;;19.56;62.85;100804.66;5036258;28;56686;-72
2023/08/04 00:33:40;;;;;;;;;5.25;4.50;;;;;19.60;62.69;100795.13;5036746;28;45435;-72
2023/08/04 00:36:05;;;;;;;;;4.00;4.00;;;;;19.44;62.57;100781.97;5018679;28;54488;-72
2023/08/04 00:38:31;;;;;;;;;6.25;4.00;;;;;19.57;62.69;100800.09;5037150;28;45427;-72
2023/08/04 00:40:56;;;;;;;;;5.50;5.50;;;;;19.57;62.74;100811.72;5036694;28;46408;-71
2023/08/04 00:43:21;;;;;;;;;6.25;6.25;;;;;19.55;62.72;100808.38;5036520;28;45415;-71
2023/08/04 00:45:47;;;;;;;;;5.50;4.50;;;;;18.77;62.80;100683.78;5036890;28;45350;-72
2023/08/04 00:48:13;;;;;;;;;7.00;6.00;;;;;19.52;62.76;100816.84;5036940;28;45577;-73
2023/08/04 00:50:39;;;;;;;;;4.25;4.25;;;;;19.51;63.13;100809.78;5036485;28;46213;-71
2023/08/04 00:53:05;;;;;;;;;6.00;5.25;;;;;19.43;63.10;100802.72;5018552;28;45283;-73
2023/08/04 00:55:32;;;;;;;;;6.00;5.00;;;;;19.45;63.35;100813.28;5036638;28;45539;-71
2023/08/04 00:57:58;;;;;;;;;7.00;5.00;;;;;19.33;63.21;100790.63;5036595;28;45434;-72
2023/08/04 01:00:23;;;;;;;;;5.00;5.00;;;;;19.34;63.30;100793.13;5018426;28;47140;-71
2023/08/04 01:02:49;;;;;;;;;5.00;5.00;;;;;19.42;63.35;100805.59;5018640;28;45707;-70
2023/08/04 01:05:15;;;;;;;;;6.25;6.25;;;;;19.46;63.19;100812.25;5036543;28;45529;-70
2023/08/04 01:07:49;;;;;;;;;6.00;4.25;;;;;19.41;63.31;100812.00;5036637;28;45360;-72
2023/08/04 01:10:23;;;;;;;;;8.25;7.75;;;;;19.42;63.48;100810.97;5039858;28;45751;-71
2023/08/04 01:13:04;;;;;;;;;7.00;4.50;;;;;19.24;63.55;100778.34;5039361;28;45765;-71
2023/08/04 01:15:30;;;;;;;;;6.50;4.25;;;;;19.26;63.81;100789.75;5038519;28;45332;-71
2023/08/04 01:17:57;;;;;;;;;6.75;6.00;;;;;19.35;63.67;100810.13;5040119;28;45187;-71
2023/08/04 01:20:23;;;;;;;;;7.25;5.00;;;;;19.24;63.80;100794.53;5039622;28;45542;-70
2023/08/04 01:22:49;;;;;;;;;6.25;5.25;;;;;19.37;63.80;100813.44;5039912;28;45585;-71
2023/08/04 01:25:14;;;;;;;;;4.75;4.75;;;;;19.34;63.88;100813.84;5039771;28;45305;-72
2023/08/04 01:27:43;;;;;;;;;5.50;5.25;;;;;18.82;64.12;100731.66;5039765;28;45412;-81
2023/08/04 01:30:24;;;;;;;;;5.50;5.50;;;;;19.33;64.26;100820.28;5039746;28;46386;-70
2023/08/04 01:32:49;;;;;;;;;3.50;3.50;;;;;19.23;64.29;100800.94;5039195;28;45348;-71
2023/08/04 01:35:16;;;;;;;;;4.50;4.50;;;;;19.30;64.31;100813.41;5039781;28;45229;-72
2023/08/04 01:37:43;;;;;;;;;4.75;4.75;;;;;19.25;64.33;100806.97;5021847;28;45429;-70
2023/08/04 01:40:10;;;;;;;;;5.25;5.25;;;;;19.17;64.40;100793.63;5039341;28;45705;-71
2023/08/04 01:42:35;;;;;;;;;6.75;5.00;;;;;19.05;64.42;100774.53;5039457;28;45237;-71
2023/08/04 01:45:00;;;;;;;;;4.50;4.50;;;;;19.25;64.42;100813.19;5039158;28;45363;-71
2023/08/04 01:47:26;;;;;;;;;5.25;4.25;;;;;19.17;64.75;100809.81;5039503;28;45491;-71
2023/08/04 01:49:51;;;;;;;;;4.00;4.00;;;;;19.26;64.61;100824.81;5038866;28;61340;-71
2023/08/04 01:52:16;;;;;;;;;5.50;4.25;;;;;19.13;64.51;100801.28;5039338;28;45331;-70
2023/08/04 01:54:42;;;;;;;;;5.00;5.00;;;;;19.03;64.96;100801.66;5038001;28;45368;-71
2023/08/04 01:57:07;;;;;;;;;5.00;4.00;;;;;19.20;65.00;100833.66;5039442;28;45293;-71
2023/08/04 01:59:32;;;;;;;;;6.00;5.00;;;;;19.15;64.95;100831.56;5038654;28;45983;-71
2023/08/04 02:01:58;;;;;;;;;5.75;5.00;;;;;19.11;65.37;100825.75;5039164;28;45321;-72
2023/08/04 02:04:23;;;;;;;;;7.25;6.50;;;;;19.19;65.29;100848.19;5039220;28;45269;-71
2023/08/04 02:06:48;;;;;;;;;6.00;5.00;;;;;19.11;65.47;100835.69;5039137;28;45442;-71
2023/08/04 02:09:14;;;;;;;;;7.00;5.75;;;;;19.16;65.74;100849.41;5038963;28;45590;-71
2023/08/04 02:11:41;;;;;;;;;6.00;5.00;;;;;19.13;65.33;100839.84;5039084;28;45398;-71
2023/08/04 02:14:06;;;;;;;;;4.25;4.25;;;;;19.13;65.55;100839.03;5038489;28;45325;-71
2023/08/04 02:16:32;;;;;;;;;4.00;4.00;;;;;19.11;65.63;100841.91;5039150;28;45325;-70
2023/08/04 02:19:05;;;;;;;;;6.50;5.75;;;;;18.87;65.58;100806.53;5038758;28;45818;-70
2023/08/04 02:21:31;;;;;;;;;6.00;5.00;;;;;18.94;65.87;100824.38;5037907;28;45425;-71
2023/08/04 02:23:56;;;;;;;;;7.50;5.50;;;;;19.00;65.72;100828.16;5039070;28;45472;-71
2023/08/04 02:26:23;;;;;;;;;4.75;4.75;;;;;19.08;65.91;100849.56;5039091;28;45456;-71
2023/08/04 02:28:50;;;;;;;;;5.25;4.75;;;;;19.08;65.72;100850.41;5038463;28;46524;-71
2023/08/04 02:31:17;;;;;;;;;6.50;5.25;;;;;18.85;65.78;100812.09;5038587;28;45527;-71
2023/08/04 02:33:43;;;;;;;;;6.50;4.75;;;;;19.05;66.03;100845.41;5020702;28;45468;-71
2023/08/04 02:36:09;;;;;;;;;7.75;5.50;;;;;19.05;65.94;100853.50;5038787;28;45188;-71
2023/08/04 02:38:34;;;;;;;;;7.33;6.33;;;;;19.03;66.00;100844.78;5038363;28;45633;-71
2023/08/04 02:41:03;;;;;;;;;4.50;3.00;;;;;18.68;66.06;100791.88;5038540;28;45354;-71
2023/08/04 02:43:29;;;;;;;;;6.33;5.67;;;;;19.00;65.95;100850.53;5038264;28;45402;-71
2023/08/04 02:45:54;;;;;;;;;4.67;4.67;;;;;19.02;66.04;100853.91;5038625;28;45227;-71
2023/08/04 02:48:20;;;;;;;;;6.00;5.00;;;;;18.95;66.43;100844.91;5038283;28;45665;-72
2023/08/04 02:50:46;;;;;;;;;7.00;7.00;;;;;18.91;66.13;100840.94;5038294;28;45273;-70
2023/08/04 02:53:12;;;;;;;;;5.00;4.75;;;;;19.00;66.47;100858.63;5036894;28;45290;-71
2023/08/04 02:55:37;;;;;;;;;7.25;5.00;;;;;18.99;66.28;100858.81;5038549;28;45230;-71
2023/08/04 02:58:03;;;;;;;;;5.00;5.00;;;;;18.99;66.43;100865.03;5019961;28;47625;-71
2023/08/04 03:00:28;;;;;;;;;7.67;6.67;;;;;18.98;66.66;100860.69;5038309;28;45274;-72
2023/08/04 03:02:53;;;;;;;;;9.00;9.00;;;;;18.89;66.85;100845.69;5038315;28;45321;-71
2023/08/04 03:05:19;;;;;;;;;5.25;5.25;;;;;18.92;66.72;100852.56;5038052;28;50278;-72
2023/08/04 03:07:44;;;;;;;;;5.25;5.25;;;;;18.95;66.74;100862.94;5038020;28;47270;-71
2023/08/04 03:10:09;;;;;;;;;5.00;4.00;;;;;18.75;66.89;100831.28;5037916;28;48231;-70
2023/08/04 03:12:35;;;;;;;;;7.00;6.67;;;;;18.81;66.65;100851.22;5038202;28;45304;-70
2023/08/04 03:15:00;;;;;;;;;8.25;7.00;;;;;18.89;66.68;100863.72;5037722;28;45315;-71
2023/08/04 03:17:26;;;;;;;;;23.67;21.00;;;;;18.90;66.81;100877.00;5037791;28;46941;-71
2023/08/04 03:19:51;;;;;;;;;9.33;7.00;;;;;18.90;67.00;100877.00;5037866;28;45464;-70
2023/08/04 03:22:16;;;;;;;;;6.33;6.33;;;;;18.84;66.94;100873.22;5037998;28;45397;-71
2023/08/04 03:24:42;;;;;;;;;6.50;6.50;;;;;18.46;67.07;100805.34;5037640;28;56778;-72
2023/08/04 03:27:07;;;;;;;;;5.00;5.00;;;;;18.86;67.28;100875.72;5037661;28;51633;-71
2023/08/04 03:29:32;;;;;;;;;9.75;6.25;;;;;18.80;67.19;100874.63;5037497;28;45303;-71
2023/08/04 03:31:58;;;;;;;;;6.00;6.00;;;;;18.82;66.97;100874.44;5037037;28;45708;-71
2023/08/04 03:34:23;;;;;;;;;4.00;4.00;;;;;18.66;67.46;100858.56;5037844;28;45373;-70
2023/08/04 03:36:49;;;;;;;;;6.67;6.00;;;;;18.67;67.32;100860.25;5036218;28;46415;-71
2023/08/04 03:39:14;;;;;;;;;4.00;3.00;;;;;18.33;67.33;100818.69;5037790;28;45519;-70
2023/08/04 03:41:40;;;;;;;;;7.67;6.67;;;;;18.76;67.58;100888.69;5037732;28;45500;-70
2023/08/04 03:44:05;;;;;;;;;8.33;6.00;;;;;18.76;67.72;100900.28;5036449;28;45531;-71
2023/08/04 03:46:30;;;;;;;;;7.67;6.67;;;;;18.36;67.79;100831.75;5037417;28;46671;-71
2023/08/04 03:48:55;;;;;;;;;8.00;8.00;;;;;18.67;67.89;100887.16;5037681;28;45586;-71
2023/08/04 03:51:22;;;;;;;;;8.67;7.33;;;;;18.73;67.77;100902.53;5037546;28;45314;-71
2023/08/04 03:53:48;;;;;;;;;7.25;6.50;;;;;18.72;67.88;100906.25;5019701;28;45505;-71
2023/08/04 03:56:13;;;;;;;;;7.75;6.50;;;;;18.62;67.96;100889.56;5019422;28;48546;-71
2023/08/04 03:58:39;;;;;;;;;11.25;10.50;;;;;18.70;68.10;100905.63;5036962;28;45321;-71
2023/08/04 04:01:04;;;;;;;;;7.00;7.00;;;;;18.64;68.14;100906.41;5036036;28;45231;-71
2023/08/04 04:03:29;;;;;;;;;7.25;5.25;;;;;18.68;68.07;100915.75;5037201;28;45531;-71
2023/08/04 04:05:55;;;;;;;;;8.00;8.00;;;;;18.29;68.15;100855.09;5037105;28;46105;-71
2023/08/04 04:08:20;;;;;;;;;9.25;6.50;;;;;18.62;68.28;100911.09;5037319;28;45590;-71
2023/08/04 04:10:48;;;;;;;;;9.00;9.00;;;;;18.60;68.50;100910.44;5037143;28;45465;-71
2023/08/04 04:13:13;;;;;;;;;4.50;4.50;;;;;18.66;68.46;100923.22;5036939;28;45190;-70
2023/08/04 04:15:38;;;;;;;;;7.25;6.00;;;;;18.66;68.29;100926.72;5035049;28;53847;-71
2023/08/04 04:18:04;;;;;;;;;8.00;7.00;;;;;18.59;68.19;100906.09;5037082;28;45289;-70
2023/08/04 04:20:29;;;;;;;;;7.00;7.00;;;;;18.62;68.47;100911.97;5037131;28;45347;-70
2023/08/04 04:22:54;;;;;;;;;8.25;6.75;;;;;18.72;68.44;100927.81;5037064;28;45535;-70
2023/08/04 04:25:20;;;;;;;;;10.67;8.67;;;;;18.71;68.52;100926.97;5019077;28;46302;-70
2023/08/04 04:27:45;;;;;;;;;10.25;9.50;;;;;18.58;68.63;100907.13;5036434;28;47884;-71
2023/08/04 04:30:10;;;;;;;;;11.00;9.50;;;;;18.74;68.89;100933.84;5036843;28;45269;-69
2023/08/04 04:32:36;;;;;;;;;9.25;8.75;;;;;18.62;68.87;100916.47;5037226;28;45365;-71
2023/08/04 04:35:01;;;;;;;;;8.25;4.25;;;;;18.67;69.17;100928.41;5018495;28;48857;-70
2023/08/04 04:37:27;;;;;;;;;7.75;7.00;;;;;18.70;68.94;100936.09;5036341;28;45345;-70
2023/08/04 04:39:52;;;;;;;;;10.00;9.00;;;;;18.74;68.80;100939.22;5018692;28;45495;-71
2023/08/04 04:42:17;;;;;;;;;9.00;8.50;;;;;18.77;68.61;100936.13;5037052;28;45384;-71
2023/08/04 04:44:43;;;;;;;;;9.75;7.00;;;;;18.75;69.18;100943.59;5039074;28;46461;-71
2023/08/04 04:47:09;;;;;;;;;12.50;10.50;;;;;18.50;69.09;100902.72;5040311;28;45450;-71
2023/08/04 04:49:34;;;;;;;;;11.50;9.50;;;;;18.78;68.96;100953.97;5040557;28;45333;-72
2023/08/04 04:52:00;;;;;;;;;7.00;7.00;;;;;18.76;68.90;100948.78;5040527;28;45443;-71
2023/08/04 04:54:25;;;;;;;;;9.00;7.25;;;;;18.53;69.02;100905.84;5040155;28;45890;-71
2023/08/04 04:56:50;;;;;;;;;11.00;10.33;;;;;18.78;68.98;100943.19;5040144;28;45306;-71
2023/08/04 04:59:16;;;;;;;;;10.33;10.33;;;;;18.74;68.82;100948.13;5039382;28;51848;-71
2023/08/04 05:01:41;;;;;;;;;10.33;10.33;;;;;18.77;68.85;100946.91;5040389;28;45474;-71
2023/08/04 05:04:07;;;;;;;;;12.67;10.00;;;;;18.79;68.61;100944.84;5039950;28;45585;-70
2023/08/04 05:06:33;;;;;;;;;10.00;10.00;;;;;18.78;68.88;100948.56;5039970;28;45293;-71
2023/08/04 05:08:58;;;;;;;;;11.00;11.00;;;;;18.86;68.69;100961.94;5039961;28;45330;-72
2023/08/04 05:11:23;;;;;;;;;8.25;8.25;;;;;18.68;68.64;100934.63;5039832;28;49662;-71
2023/08/04 05:13:49;;;;;;;;;12.67;11.33;;;;;18.86;68.98;100964.63;5037860;28;48253;-72
2023/08/04 05:16:14;;;;;;;;;10.25;9.00;;;;;18.78;68.86;100953.97;5039908;28;45324;-71
2023/08/04 05:18:39;;;;;;;;;10.33;8.00;;;;;18.84;68.88;100964.00;5039775;28;45427;-71
2023/08/04 05:21:05;;;;;;;;;11.00;9.67;;;;;18.88;68.86;100970.66;5039688;28;45223;-71
2023/08/04 05:23:30;;;;;;;;;12.00;11.33;;;;;18.82;68.96;100960.63;5039604;28;46880;-71
2023/08/04 05:25:56;;;;;;;;;11.50;11.50;;;;;18.76;68.92;100947.94;5039511;28;45333;-71
2023/08/04 05:28:30;;;;;;;;;12.75;10.75;;;;;18.89;69.07;100975.03;5038837;28;52281;-71
2023/08/04 05:31:00;;;;;;;;;13.25;11.00;;;;;18.92;69.11;100982.72;5040125;28;45479;-72
2023/08/04 05:33:26;;;;;;;;;12.25;11.00;;;;;18.91;68.90;100980.22;5039066;28;46663;-71
2023/08/04 05:35:52;;;;;;;;;10.67;10.33;;;;;18.88;69.08;100981.44;5039335;28;45420;-71
2023/08/04 05:38:18;;;;;;;;;14.00;11.25;;;;;18.70;69.19;100951.41;5021667;28;45344;-71
2023/08/04 05:40:44;;;;;;;;;14.00;10.67;;;;;18.75;69.26;100962.44;5039467;28;45462;-71
2023/08/04 05:43:11;;;;;;;;;13.33;11.00;;;;;18.86;69.26;100982.66;5038958;28;45819;-72
2023/08/04 05:45:38;;;;;;;;;9.33;8.00;;;;;18.83;68.85;100979.31;5039135;28;45479;-71
2023/08/04 05:48:04;;;;;;;;;11.75;10.75;;;;;18.90;68.81;100986.63;5039321;28;45410;-70
2023/08/04 05:50:29;;;;;;;;;10.33;10.33;;;;;18.81;69.12;100972.44;5039318;28;45444;-71
2023/08/04 05:52:56;;;;;;;;;11.33;10.33;;;;;18.91;69.30;100989.13;5039122;28;45924;-71
2023/08/04 05:55:21;;;;;;;;;12.33;11.00;;;;;18.83;68.82;100979.31;5038150;28;45351;-71
2023/08/04 05:57:46;;;;;;;;;10.33;9.67;;;;;18.86;69.18;100980.78;5038782;28;45391;-71
2023/08/04 06:00:12;;;;;;;;;10.67;10.33;;;;;18.89;69.00;100985.78;5038943;28;47987;-72
2023/08/04 06:02:38;;;;;;;;;8.25;8.00;;;;;19.00;68.98;101000.59;5037231;28;47895;-72
2023/08/04 06:05:04;;;;;;;;;11.25;10.25;;;;;19.02;68.90;101003.94;5038968;28;45393;-72
2023/08/04 06:07:29;;;;;;;;;14.33;11.33;;;;;18.73;68.94;100954.56;5039149;28;45321;-73
2023/08/04 06:09:54;;;;;;;;;15.00;13.00;;;;;18.54;68.83;100929.06;5037109;28;45377;-72
2023/08/04 06:12:20;;;;;;;;;12.00;12.00;;;;;19.03;69.06;101011.00;5038786;28;45984;-72
2023/08/04 06:14:46;;;;;;;;;13.00;8.67;;;;;19.04;68.85;101010.00;5038380;28;45214;-72
2023/08/04 06:17:12;;;;;;;;;10.67;10.00;;;;;18.33;68.76;100891.34;5038977;28;45553;-72
2023/08/04 06:19:42;;;;;;;;;21.67;21.00;;;;;19.09;68.73;101016.47;5039089;28;45228;-70
2023/08/04 06:22:07;;;;;;;;;13.33;12.33;;;;;19.10;68.80;101018.13;5038584;28;46580;-70
2023/08/04 06:24:33;;;;;;;;;13.67;11.00;;;;;19.17;68.84;101023.56;5038422;28;45456;-71
2023/08/04 06:26:58;;;;;;;;;14.33;11.67;;;;;19.09;68.54;101007.53;5038739;28;45266;-70
2023/08/04 06:29:23;;;;;;;;;8.33;8.00;;;;;19.20;68.77;101033.13;5037411;28;45552;-72
2023/08/04 06:31:49;;;;;;;;;12.50;12.50;;;;;19.24;68.38;101037.97;5038352;28;45602;-70
2023/08/04 06:34:14;;;;;;;;;14.67;12.67;;;;;19.22;68.40;101031.06;5038399;28;45391;-71
2023/08/04 06:36:39;;;;;;;;;10.00;10.00;;;;;19.14;68.13;101022.09;5038630;28;45491;-70
2023/08/04 06:39:05;;;;;;;;;13.00;13.00;;;;;18.96;68.19;100986.69;5038784;28;45323;-71
2023/08/04 06:41:30;;;;;;;;;12.67;7.33;;;;;19.26;68.12;101035.06;5038280;28;46099;-70
2023/08/04 06:43:55;;;;;;;;;13.67;13.33;;;;;19.34;68.19;101048.41;5038008;28;45296;-71
2023/08/04 06:46:21;;;;;;;;;14.67;13.00;;;;;19.35;68.40;101048.19;5036801;28;45263;-70
2023/08/04 06:48:46;;;;;;;;;12.33;11.67;;;;;19.36;67.81;101043.66;5038465;28;45590;-72
2023/08/04 06:51:11;;;;;;;;;13.00;13.00;;;;;19.06;67.97;100999.84;5037581;28;53500;-71
2023/08/04 06:53:37;;;;;;;;;19.67;13.67;;;;;19.39;67.96;101054.03;5038135;28;45418;-72
2023/08/04 06:56:02;;;;;;;;;15.33;13.33;;;;;19.45;67.95;101053.28;5038249;28;45281;-71
2023/08/04 06:58:28;;;;;;;;;12.67;12.33;;;;;19.41;68.04;101047.41;5038086;28;45290;-71
2023/08/04 07:00:53;;;;;;;;;16.33;13.67;;;;;19.44;68.09;101054.31;5037806;28;45752;-71
2023/08/04 07:03:18;;;;;;;;;15.33;12.67;;;;;19.42;68.06;101040.16;5037916;28;45309;-71
2023/08/04 07:05:44;;;;;;;;;15.33;12.33;;;;;19.32;68.04;101026.19;5037792;28;50413;-71
2023/08/04 07:08:09;;;;;;;;;16.00;14.00;;;;;19.46;67.89;101054.94;5037736;28;45514;-71
2023/08/04 07:10:35;;;;;;;;;13.67;13.33;;;;;19.60;67.69;101067.53;5037825;28;47915;-72
2023/08/04 07:13:01;;;;;;;;;13.00;13.00;;;;;19.67;67.58;101067.59;5037465;28;45321;-71
2023/08/04 07:15:27;;;;;;;;;16.33;13.33;;;;;19.58;67.50;101048.00;5037964;28;45368;-72
2023/08/04 07:17:52;;;;;;;;;13.67;13.00;;;;;19.73;67.50;101070.34;5038263;28;45395;-70
2023/08/04 07:20:17;;;;;;;;;16.67;13.00;;;;;19.73;67.33;101073.03;5037610;28;48086;-71
2023/08/04 07:22:43;;;;;;;;;14.67;14.00;;;;;19.83;67.23;101071.88;5037282;28;45349;-71
2023/08/04 07:25:08;;;;;;;;;11.33;11.33;;;;;19.86;67.34;101082.28;5037647;28;45332;-71
2023/08/04 07:27:34;;;;;;;;;18.67;18.00;;;;;19.90;67.13;101084.38;5037782;28;45518;-72
2023/08/04 07:29:59;;;;;;;;;12.67;12.67;;;;;19.91;66.78;101069.00;5035876;28;46463;-71
2023/08/04 07:32:27;;;;;;;;;10.33;10.33;;;;;19.96;66.76;101085.44;5019205;28;45519;-71
2023/08/04 07:34:52;;;;;;;;;11.67;11.00;;;;;19.72;66.64;101036.28;5036806;28;57921;-72
2023/08/04 07:37:17;;;;;;;;;16.00;13.33;;;;;19.96;66.54;101077.34;5037678;28;45599;-71
2023/08/04 07:39:43;;;;;;;;;13.00;13.00;;;;;20.07;66.26;101079.50;5036879;28;61793;-71
2023/08/04 07:42:08;;;;;;;;;11.33;10.67;;;;;20.18;66.89;101097.84;5036431;28;68376;-71
2023/08/04 07:44:34;;;;;;;;;15.33;13.00;;;;;20.24;66.59;101105.16;5037349;28;45500;-71
2023/08/04 07:46:59;;;;;;;;;15.33;14.00;;;;;20.31;66.78;101097.09;5037518;28;45283;-71
2023/08/04 07:49:25;;;;;;;;;9.00;9.00;;;;;20.09;66.04;101044.22;5037247;28;45969;-71
2023/08/04 07:51:50;;;;;;;;;10.25;10.25;;;;;20.46;66.27;101102.41;5035715;28;46381;-72
2023/08/04 07:54:16;;;;;;;;;10.00;8.50;;;;;20.44;65.72;101088.28;5037179;28;45453;-71
2023/08/04 07:56:41;;;;;;;;;8.00;8.00;;;;;20.43;65.36;101081.19;5037387;28;45410;-71
2023/08/04 07:59:06;;;;;;;;;10.50;10.50;;;;;20.14;65.31;101026.38;5036514;28;51932;-69
2023/08/04 08:01:32;;;;;;;;;10.67;10.67;;;;;20.62;65.43;101104.75;5035611;28;45235;-71
2023/08/04 08:03:57;;;;;;;;;12.67;10.00;;;;;20.70;64.76;101112.69;5037082;28;45550;-70
2023/08/04 08:06:22;;;;;;;;;11.67;10.33;;;;;20.33;65.21;101047.25;5037195;28;45293;-71
2023/08/04 08:08:48;;;;;;;;;8.00;6.67;;;;;20.66;65.18;101097.94;5035585;28;46532;-71
2023/08/04 08:11:13;;;;;;;;;12.00;11.33;;;;;20.79;64.42;101122.28;5036431;28;60966;-70
2023/08/04 08:13:39;;;;;;;;;13.00;11.33;;;;;20.51;64.45;101067.50;5036560;28;45423;-71
2023/08/04 08:16:13;;;;;;;;;13.33;9.33;;;;;20.42;64.28;101045.22;5037127;28;45426;-71
2023/08/04 08:18:39;;;;;;;;;10.00;9.00;;;;;20.82;64.23;101108.38;5035885;28;45502;-71
2023/08/04 08:21:06;;;;;;;;;7.33;6.33;;;;;20.95;63.77;101129.19;5036624;28;45385;-72
2023/08/04 08:23:31;;;;;;;;;8.00;8.00;;;;;20.96;63.81;101129.00;5036842;28;45496;-71
2023/08/04 08:25:57;;;;;;;;;9.33;6.33;;;;;21.00;64.15;101137.53;5036897;28;45234;-71
2023/08/04 08:28:22;;;;;;;;;11.50;11.50;;;;;21.02;63.84;101131.91;5036209;28;46489;-72
2023/08/04 08:30:47;;;;;;;;;8.50;8.50;;;;;20.60;63.43;101055.47;5036656;28;45493;-72
2023/08/04 08:33:13;;;;;;;;;17.33;16.67;;;;;21.10;63.55;101142.56;5036692;28;45459;-72
2023/08/04 08:35:38;;;;;;;;;10.75;10.50;;;;;20.79;63.23;101081.75;5036919;28;45526;-71
2023/08/04 08:38:03;;;;;;;;;11.00;9.00;;;;;21.17;63.20;101132.59;5036089;28;47233;-71
2023/08/04 08:40:29;;;;;;;;;10.00;8.25;;;;;21.16;62.54;101123.66;5036457;28;45254;-70
2023/08/04 08:42:56;;;;;;;;;4.00;3.00;;;;;21.22;62.47;101139.09;5036378;28;45455;-71
2023/08/04 08:45:28;;;;;;;;;13.00;10.00;;;;;21.25;62.71;101132.47;5036767;28;45460;-72
2023/08/04 08:47:55;;;;;;;;;10.00;9.00;;;;;21.41;62.45;101150.16;5034779;28;47519;-72
2023/08/04 08:50:25;;;;;;;;;9.00;6.75;;;;;21.31;61.94;101131.63;5036166;28;45346;-71
2023/08/04 08:53:08;;;;;;;;;12.33;11.33;;;;;21.49;61.34;101150.81;5036230;28;45581;-70
2023/08/04 08:55:34;;;;;;;;;11.25;8.00;;;;;21.59;61.37;101163.09;5036317;28;45322;-71
2023/08/04 08:58:00;;;;;;;;;7.25;7.25;;;;;21.22;61.07;101090.41;5034620;28;48032;-71
2023/08/04 09:00:28;;;;;;;;;7.25;7.00;;;;;21.51;61.00;101143.31;5036070;28;45493;-73
2023/08/04 09:02:54;;;;;;;;;6.00;6.00;;;;;21.70;60.58;101173.31;5036376;28;45282;-72
2023/08/04 09:05:21;;;;;;;;;5.75;5.75;;;;;21.76;60.65;101169.78;5036483;28;45407;-72
2023/08/04 09:07:48;;;;;;;;;7.00;7.00;;;;;21.72;60.38;101150.41;5036161;28;45913;-69
2023/08/04 09:10:13;;;;;;;;;6.75;6.75;;;;;21.83;60.45;101147.09;5036332;28;45412;-71
2023/08/04 09:12:39;;;;;;;;;5.00;5.00;;;;;22.09;59.82;101173.38;5036331;28;45506;-71
2023/08/04 09:15:05;;;;;;;;;8.00;8.00;;;;;22.19;59.08;101164.78;5035840;28;45588;-71
2023/08/04 09:17:35;;;;;;;;;5.50;4.75;;;;;22.10;58.22;101141.69;5036047;28;46619;-71
2023/08/04 09:20:04;;;;;;;;;6.25;6.25;;;;;22.35;58.11;101172.50;5035643;28;45333;-71
2023/08/04 09:22:31;;;;;;;;;7.00;7.00;;;;;22.34;58.10;101160.00;5036048;28;45293;-71
2023/08/04 09:25:02;;;;;;;;;6.50;6.50;;;;;22.36;57.77;101167.91;5036170;28;45218;-71
2023/08/04 09:27:38;;;;;;;;;7.75;6.50;;;;;22.47;57.81;101191.66;5035848;28;45974;-71
2023/08/04 09:30:05;;;;;;;;;9.50;8.50;;;;;22.39;57.19;101167.47;5037371;28;45406;-71
2023/08/04 09:32:34;;;;;;;;;7.75;4.50;;;;;22.54;57.52;101184.34;5039143;28;45262;-71
2023/08/04 09:35:06;;;;;;;;;7.25;7.25;;;;;22.56;56.87;101173.28;5039166;28;45459;-72
2023/08/04 09:37:36;;;;;;;;;4.25;3.25;;;;;22.63;57.15;101183.06;5038784;28;46997;-71
2023/08/04 09:40:12;;;;;;;;;9.00;7.25;;;;;22.61;57.05;101177.00;5038974;28;45543;-70
2023/08/04 09:42:39;;;;;;;;;10.00;10.00;;;;;22.58;58.29;101182.84;5021232;28;45556;-70
2023/08/04 09:45:05;;;;;;;;;7.00;7.00;;;;;22.34;57.64;101132.06;5039065;28;45443;-72
2023/08/04 09:47:30;;;;;;;;;5.25;5.25;;;;;22.72;56.62;101179.06;5039138;28;46669;-71
2023/08/04 09:49:57;;;;;;;;;8.75;7.75;;;;;22.83;57.46;101166.78;5038905;28;50690;-70
2023/08/04 09:52:30;;;;;;;;;6.33;5.33;;;;;22.88;57.32;101150.69;5039101;28;45275;-71
2023/08/04 09:54:56;;;;;;;;;10.50;8.25;;;;;22.97;56.69;101156.69;5039220;28;45337;-71
2023/08/04 09:57:23;;;;;;;;;6.50;6.00;;;;;22.73;56.06;101109.44;5038818;28;46324;-70
2023/08/04 09:59:49;;;;;;;;;5.50;5.50;;;;;22.94;54.88;101132.72;5038567;28;45262;-71
2023/08/04 10:02:16;;;;;;;;;8.00;6.50;;;;;22.97;54.55;101145.84;5038994;28;45522;-72
2023/08/04 10:04:42;;;;;;;;;8.25;7.25;;;;;23.05;53.72;101157.31;5039031;28;45338;-71
2023/08/04 10:07:09;;;;;;;;;8.50;8.50;;;;;23.11;54.11;101161.00;5038766;28;45722;-72
2023/08/04 10:09:35;;;;;;;;;7.50;7.50;;;;;23.08;54.13;101147.06;5038777;28;45495;-71
2023/08/04 10:12:01;;;;;;;;;5.25;5.25;;;;;23.15;54.04;101158.69;5039064;28;45426;-71
2023/08/04 10:14:27;;;;;;;;;6.50;6.50;;;;;23.21;54.16;101155.09;5038410;28;45199;-70
2023/08/04 10:16:54;;;;;;;;;7.00;7.00;;;;;23.18;54.13;101160.97;5020492;28;47470;-71
2023/08/04 10:19:20;;;;;;;;;6.00;6.00;;;;;23.16;54.33;101150.34;5037386;28;46381;-71
2023/08/04 10:21:45;;;;;;;;;6.50;6.00;;;;;23.16;54.39;101155.78;5020950;28;45437;-72
2023/08/04 10:24:12;;;;;;;;;9.75;7.00;;;;;22.07;54.02;100975.06;5020861;28;45483;-71
2023/08/04 10:26:46;;;;;;;;;9.00;8.00;;;;;22.88;54.40;101106.50;5038504;28;46429;-71
2023/08/04 10:29:12;;;;;;;;;7.00;7.00;;;;;23.24;53.93;101154.69;5038192;28;45431;-71
2023/08/04 10:31:47;;;;;;;;;6.33;6.33;;;;;23.04;53.67;101125.81;5038653;28;45316;-71
2023/08/04 10:34:31;;;;;;;;;8.75;7.25;;;;;23.27;53.58;101159.69;5038688;28;45320;-72
2023/08/04 10:37:14;;;;;;;;;14.67;14.67;;;;;23.28;53.70;101162.19;5038333;28;46668;-72
2023/08/04 10:39:44;;;;;;;;;7.00;7.00;;;;;23.34;53.71;101155.88;5037995;28;45228;-72
2023/08/04 10:42:09;;;;;;;;;6.75;5.50;;;;;23.35;53.29;101146.69;5037885;28;45387;-70
2023/08/04 10:44:55;;;;;;;;;7.25;7.00;;;;;23.38;53.53;101161.69;5038003;28;45486;-71
2023/08/04 10:47:48;;;;;;;;;8.00;6.25;;;;;23.41;53.31;101160.41;5038228;28;45733;-72
2023/08/04 10:50:14;;;;;;;;;7.00;5.00;;;;;23.45;52.58;101167.94;5036847;28;45500;-70
2023/08/04 10:52:40;;;;;;;;;7.50;6.00;;;;;23.49;52.69;101168.31;5036822;28;45447;-71
2023/08/04 10:55:09;;;;;;;;;4.00;4.00;;;;;23.52;52.35;101157.03;5038224;28;45489;-71
2023/08/04 10:57:36;;;;;;;;;5.00;5.00;;;;;23.55;51.84;101162.00;5037997;28;45836;-71
2023/08/04 11:00:05;;;;;;;;;8.25;6.00;;;;;23.48;50.65;101136.81;5037545;28;45408;-71
2023/08/04 11:02:31;;;;;;;;;7.00;5.50;;;;;23.25;49.69;101108.38;5037993;28;45414;-71
2023/08/04 11:04:57;;;;;;;;;6.00;6.00;;;;;23.60;49.79;101159.50;5038103;28;46087;-71
2023/08/04 11:07:24;;;;;;;;;4.00;4.00;;;;;23.56;49.60;101141.97;5037746;28;46869;-71
2023/08/04 11:09:51;;;;;;;;;7.75;7.00;;;;;23.67;49.89;101154.88;5037725;28;45460;-72
2023/08/04 11:12:16;;;;;;;;;6.50;6.00;;;;;23.64;49.74;101155.31;5037944;28;45405;-72
2023/08/04 11:14:43;;;;;;;;;5.00;5.00;;;;;23.64;50.22;101171.59;5037327;28;45392;-72
2023/08/04 11:17:17;;;;;;;;;3.50;3.50;;;;;23.64;49.84;101187.88;5037763;28;45721;-71